Aeroporto :
LOGIN :

Iscrizione | Disclaimer

   EN    FR    IT 

 










Sommario :    VFR   VFR Marginale   IFR   IFR Intensivo   IFR Molto Intensivo
Visibilità : 
Base nubi : 
>= 8 km
>= 3000ft
5 / 8 km
1000 / 3000 ft
1500m / 5 km
500 / 1000 ft
800 / 1500m
200 / 500 ft
< 800m
< 200 ft
Simboli :   Temporali  Nebbia  Neve Forte  Precipitazioni Forti  Vento > 20 kt
SIGMETs :   Varie  Temporali  Ghiacco  Turbolenza  Onda orograficha  Ceneri Vulcaniche






- Altitudine del aeroporto : 154 ft
- Codice IATA : SZZ


EPSC - Szczecin Goleniow

ULTIMO METAR :
  • 231800Z 28008KT 9999 -RA FEW004 SCT006 BKN009 04/03 Q0999

METARs OBSOLETI :
  • 231730Z 27005KT 9999 -RA FEW010 SCT012 BKN015 04/03 Q0999
  • 231700Z 25003KT 210V280 9999 -RA FEW008 SCT011 BKN013 04/03 Q0998
  • 231630Z 25003KT 9999 -RA FEW009 SCT013 BKN016 04/03 Q0999
  • 231600Z 23004KT 180V280 9999 -RA FEW004 BKN014 BKN018 04/03 Q0999
  • 231530Z 24005KT 9999 -RA FEW005 SCT010 BKN013 04/03 Q0999

TAF TAF EPSC
Valido dal 23 a 18 ore il 24 a 18 ore UTC


231730Z 2318/2418 26004KT 9999 -RA SCT009 BKN014
BECMG 2318/2320 28014KT
TEMPO 2318/2321 28016G30KT SCT004 BKN006
BECMG 2321/2323 BKN025
TEMPO 2321/2406 28020G37KT SHRA BKN007 BKN012CB
PROB40
TEMPO 2406/2415 27015G29KT
BECMG 2415/2416 17008KT



MetMap, La meteo Aeronautica in un colpo d'occhio ! - Copyright ORBIFLY Dicembre 2007 - Disclaimer

ORBIFLY MET'MAP TEAM :

Programmazione e sviluppo : Alexandra Zaïnal
Concezione : Baudouin d'Aumeries
Aiuto per la programmazione : Marc-Olivier Méhu
Supporto tecnico e logistico : Manuel Goepfert
Aiuto per la traduzione : Arnaldo La Scala

Contatto : metmap@orbifly.com




FONTI E CREDITI :

   NOAA